Time;durP1;ratioP1;P1;durP2;ratioP2;P2;SDS_P1;SDS_P2;PMS_P1;PMS_P2;Temp;Humidity;BMP_temperature;BMP_pressure;BME280_temperature;BME280_humidity;BME280_pressure;Samples;Min_cycle;Max_cycle;Signal;HPM_P1;HPM_P2
2022/03/26 00:00:07;;;;;;;32.83;22.15;;;;;;;4.92;49.16;101254.97;10347289;28;20057;-80
2022/03/26 00:05:09;;;;;;;32.38;22.20;;;;;;;4.92;49.04;101258.41;10346250;28;20089;-80
2022/03/26 00:10:12;;;;;;;33.78;21.70;;;;;;;4.86;49.15;101242.94;10328976;28;20129;-80
2022/03/26 00:15:14;;;;;;;39.15;22.45;;;;;;;4.70;49.33;101252.69;10350582;28;20136;-80
2022/03/26 00:20:16;;;;;;;32.63;22.30;;;;;;;4.57;49.64;101258.06;10353323;28;20849;-80
2022/03/26 00:25:18;;;;;;;38.20;23.88;;;;;;;4.42;50.05;101261.72;10353270;28;20547;-80
2022/03/26 00:30:25;;;;;;;35.92;21.90;;;;;;;4.34;50.74;101266.16;10353511;28;20050;-80
2022/03/26 00:35:27;;;;;;;37.00;21.55;;;;;;;4.37;50.04;101267.84;10352577;28;20074;-80
2022/03/26 00:40:29;;;;;;;34.30;21.05;;;;;;;4.36;50.36;101271.31;10334556;28;20541;-80
2022/03/26 00:45:31;;;;;;;29.05;20.92;;;;;;;4.35;50.48;101270.44;10353015;28;20104;-80
2022/03/26 00:50:34;;;;;;;31.50;20.83;;;;;;;4.33;50.48;101269.59;10352938;28;20486;-80
2022/03/26 00:55:36;;;;;;;30.05;20.90;;;;;;;4.23;50.57;101278.38;10351685;28;20232;-80
2022/03/26 01:00:38;;;;;;;33.17;21.05;;;;;;;3.92;50.96;101269.28;10352795;28;20128;-80
2022/03/26 01:05:40;;;;;;;34.72;21.17;;;;;;;3.95;51.09;101278.72;10351606;28;20507;-80
2022/03/26 01:10:45;;;;;;;30.83;21.33;;;;;;;4.01;51.18;101271.75;10353277;28;20052;-80
2022/03/26 01:15:47;;;;;;;36.10;21.33;;;;;;;3.97;51.24;101272.66;10357424;28;20061;-81
2022/03/26 01:20:49;;;;;;;38.40;21.58;;;;;;;3.88;51.45;101266.75;10327016;28;20053;-81
2022/03/26 01:25:51;;;;;;;31.15;21.23;;;;;;;3.82;51.61;101267.63;10332432;28;20077;-80
2022/03/26 01:30:53;;;;;;;37.60;21.35;;;;;;;3.75;51.86;101260.81;10350767;28;20129;-80
2022/03/26 01:35:55;;;;;;;31.70;20.48;;;;;;;3.73;52.10;101262.56;10351517;28;20081;-80
2022/03/26 01:40:57;;;;;;;31.60;20.40;;;;;;;3.64;52.20;101260.91;10349949;28;21160;-80
2022/03/26 01:45:59;;;;;;;34.05;20.10;;;;;;;3.50;52.28;101249.00;10348893;28;20929;-80
2022/03/26 01:51:14;;;;;;;31.95;18.75;;;;;;;3.43;52.33;101242.19;10350147;28;20046;-80
2022/03/26 01:56:17;;;;;;;29.08;19.35;;;;;;;3.42;52.38;101241.31;10349830;28;21049;-80
2022/03/26 02:01:18;;;;;;;27.70;19.33;;;;;;;3.27;52.68;101241.47;10331976;28;20136;-80
2022/03/26 02:06:22;;;;;;;31.70;19.52;;;;;;;3.07;53.13;101234.78;10331864;28;20161;-80
2022/03/26 02:11:24;;;;;;;28.95;19.63;;;;;;;3.01;53.55;101236.53;10349240;28;20061;-81
2022/03/26 02:16:27;;;;;;;29.90;19.38;;;;;;;3.01;53.30;101241.69;10331678;28;20163;-80
2022/03/26 02:21:29;;;;;;;30.08;19.73;;;;;;;2.98;53.39;101236.56;10348625;28;20145;-80
2022/03/26 02:26:31;;;;;;;30.73;19.77;;;;;;;2.94;53.79;101232.28;10348548;28;20054;-80
2022/03/26 02:31:34;;;;;;;29.95;19.52;;;;;;;2.86;53.96;101239.25;10348928;28;20141;-79
2022/03/26 02:36:36;;;;;;;33.95;20.23;;;;;;;2.54;54.18;101242.91;10348451;28;20141;-79
2022/03/26 02:41:38;;;;;;;31.05;19.98;;;;;;;2.59;54.22;101242.00;10336823;28;20168;-79
2022/03/26 02:46:40;;;;;;;30.88;19.95;;;;;;;2.74;54.17;101247.09;10312320;28;20050;-79
2022/03/26 02:52:09;;;;;;;34.22;20.80;;;;;;;2.62;54.83;101254.06;10321934;28;20129;-79
2022/03/26 02:57:11;;;;;;;33.08;19.83;;;;;;;2.64;54.22;101257.50;10315600;28;20108;-79
2022/03/26 03:02:13;;;;;;;33.03;20.20;;;;;;;2.58;54.38;101258.34;10325923;28;20061;-79
2022/03/26 03:07:15;;;;;;;28.92;19.25;;;;;;;2.62;54.27;101261.81;10323116;28;20298;-79
2022/03/26 03:12:16;;;;;;;28.45;19.55;;;;;;;2.57;54.34;101248.91;10333861;28;20128;-79
2022/03/26 03:17:18;;;;;;;31.05;19.83;;;;;;;2.50;54.36;101256.72;10328922;28;20050;-79
2022/03/26 03:22:20;;;;;;;29.98;19.85;;;;;;;2.39;54.42;101261.94;10328508;28;20469;-79
2022/03/26 03:27:21;;;;;;;30.42;19.73;;;;;;;2.40;54.74;101267.97;10331120;28;20153;-79
2022/03/26 03:32:23;;;;;;;29.88;19.48;;;;;;;2.38;54.58;101256.78;10327520;28;20129;-79
2022/03/26 03:37:26;;;;;;;30.60;19.70;;;;;;;2.32;54.75;101265.41;10322224;28;20128;-79
2022/03/26 03:42:27;;;;;;;30.70;19.83;;;;;;;2.18;55.17;101267.19;10333734;28;20043;-79
2022/03/26 03:47:29;;;;;;;33.45;20.17;;;;;;;2.10;55.52;101259.50;10332354;28;20081;-79
2022/03/26 03:52:31;;;;;;;31.77;20.58;;;;;;;2.16;55.47;101263.75;10335378;28;20085;-79
2022/03/26 03:57:34;;;;;;;36.17;19.05;;;;;;;2.12;55.40;101254.31;10345559;28;20086;-79
2022/03/26 04:02:35;;;;;;;31.45;19.75;;;;;;;2.05;55.33;101260.38;10334088;28;20129;-79
2022/03/26 04:07:38;;;;;;;34.00;21.30;;;;;;;2.00;55.62;101262.09;10333401;28;20530;-79
2022/03/26 04:12:42;;;;;;;35.15;19.40;;;;;;;1.96;55.77;101257.81;10333212;28;20405;-79
2022/03/26 04:17:43;;;;;;;31.90;20.15;;;;;;;1.88;55.38;101269.88;10338225;28;20078;-79
2022/03/26 04:22:45;;;;;;;33.25;20.45;;;;;;;1.46;56.07;101276.03;10334560;28;20140;-79
2022/03/26 04:27:49;;;;;;;29.70;18.73;;;;;;;1.58;56.40;101278.56;10331306;28;20061;-79
2022/03/26 04:32:51;;;;;;;30.95;19.25;;;;;;;1.68;56.12;101276.84;10333048;28;20073;-79
2022/03/26 04:37:56;;;;;;;30.55;19.42;;;;;;;1.68;56.15;101279.41;10331703;28;20610;-79
2022/03/26 04:42:58;;;;;;;30.95;19.75;;;;;;;1.73;56.01;101290.56;10328964;28;20081;-79
2022/03/26 04:48:00;;;;;;;36.65;21.27;;;;;;;1.71;56.07;101290.56;10336113;28;20780;-79
2022/03/26 04:53:03;;;;;;;36.50;21.05;;;;;;;1.65;56.09;101292.28;10331120;28;20046;-79
2022/03/26 04:58:05;;;;;;;29.52;19.13;;;;;;;1.62;56.04;101289.75;10334404;28;20081;-79
2022/03/26 05:03:08;;;;;;;30.70;20.75;;;;;;;1.61;56.22;101298.31;10330541;28;20579;-80
2022/03/26 05:08:10;;;;;;;34.38;20.55;;;;;;;1.49;56.41;101300.91;10331622;28;20499;-80
2022/03/26 05:13:11;;;;;;;33.63;21.40;;;;;;;1.44;56.63;101300.94;10312784;28;20141;-80
2022/03/26 05:18:13;;;;;;;33.00;19.38;;;;;;;1.46;56.52;101313.81;10327943;28;20166;-80
2022/03/26 05:23:15;;;;;;;33.85;20.80;;;;;;;1.29;56.57;101308.69;10333728;28;20493;-79
2022/03/26 05:28:17;;;;;;;35.17;20.30;;;;;;;1.29;56.76;101309.53;10331471;28;20090;-80
2022/03/26 05:33:18;;;;;;;34.28;20.73;;;;;;;1.36;56.80;101318.97;10333177;28;20133;-80
2022/03/26 05:38:20;;;;;;;35.60;21.45;;;;;;;1.39;56.54;101323.28;10332401;28;20469;-81
2022/03/26 05:43:23;;;;;;;36.50;21.80;;;;;;;1.28;56.64;101319.81;10328299;28;21005;-80
2022/03/26 05:48:24;;;;;;;34.40;20.35;;;;;;;1.49;56.54;101326.69;10328542;28;20058;-80
2022/03/26 05:53:26;;;;;;;32.70;20.00;;;;;;;1.65;56.28;101321.53;10329502;28;20149;-81
2022/03/26 05:58:28;;;;;;;35.13;20.88;;;;;;;1.88;56.26;101329.22;10332704;28;20058;-81
2022/03/26 06:03:30;;;;;;;34.35;21.05;;;;;;;1.95;55.92;101338.69;10331294;28;20053;-80
2022/03/26 06:08:32;;;;;;;35.60;21.00;;;;;;;1.98;55.77;101338.66;10329629;28;20469;-81
2022/03/26 06:13:33;;;;;;;42.92;24.95;;;;;;;1.86;56.07;101349.00;10327280;28;20141;-79
2022/03/26 06:18:35;;;;;;;37.55;22.85;;;;;;;1.95;56.12;101351.56;10330670;28;20062;-80
2022/03/26 06:23:37;;;;;;;37.78;20.65;;;;;;;2.20;56.01;101348.91;10328649;28;20145;-80
2022/03/26 06:28:39;;;;;;;34.65;22.10;;;;;;;2.46;55.29;101359.13;10329773;28;20085;-80
2022/03/26 06:33:46;;;;;;;32.88;20.98;;;;;;;2.66;55.02;101357.31;10330369;28;20506;-79
2022/03/26 06:38:48;;;;;;;33.15;20.80;;;;;;;2.91;54.99;101352.88;10327115;28;20168;-79
2022/03/26 06:43:49;;;;;;;35.17;21.25;;;;;;;3.05;54.58;101354.50;10330096;28;20192;-79
2022/03/26 06:48:51;;;;;;;34.35;21.15;;;;;;;2.87;54.61;101359.78;10328662;28;20091;-79
2022/03/26 06:53:53;;;;;;;33.97;20.88;;;;;;;3.11;54.51;101363.09;10324573;28;20128;-79
2022/03/26 06:58:55;;;;;;;32.92;20.80;;;;;;;3.39;53.80;101367.19;10325678;28;20054;-79
2022/03/26 07:03:58;;;;;;;35.55;19.35;;;;;;;3.44;53.79;101368.00;10329813;28;20145;-79
2022/03/26 07:09:00;;;;;;;31.95;20.73;;;;;;;3.47;53.88;101370.59;10332307;28;21011;-79
2022/03/26 07:14:02;;;;;;;30.30;19.45;;;;;;;3.65;53.72;101368.72;10329350;28;20125;-79
2022/03/26 07:19:03;;;;;;;34.53;20.85;;;;;;;3.74;53.34;101370.38;10323951;28;20090;-79
2022/03/26 07:24:06;;;;;;;36.17;22.20;;;;;;;3.92;53.20;101377.97;10320833;28;20133;-79
2022/03/26 07:29:08;;;;;;;45.17;29.30;;;;;;;4.22;52.14;101376.78;10311402;28;20164;-79
2022/03/26 07:34:12;;;;;;;33.58;21.42;;;;;;;4.56;51.73;101376.38;10325853;28;20078;-79
2022/03/26 07:39:14;;;;;;;33.50;20.63;;;;;;;4.85;51.49;101377.75;10324997;28;20141;-79
2022/03/26 07:44:16;;;;;;;32.55;20.85;;;;;;;5.14;50.85;101384.25;10321924;28;20500;-79
2022/03/26 07:49:18;;;;;;;31.67;21.27;;;;;;;5.64;50.64;101380.84;10325235;28;20161;-79
2022/03/26 07:54:20;;;;;;;32.00;20.95;;;;;;;6.43;49.44;101379.47;10324326;28;20046;-80
2022/03/26 07:59:21;;;;;;;38.25;22.13;;;;;;;7.20;47.78;101376.03;10324574;28;20153;-79
2022/03/26 08:04:23;;;;;;;32.40;21.25;;;;;;;7.66;46.77;101375.78;10328095;28;20414;-79
2022/03/26 08:09:25;;;;;;;31.15;20.30;;;;;;;8.17;45.70;101378.81;10321287;28;20054;-79
2022/03/26 08:14:28;;;;;;;36.40;20.23;;;;;;;8.77;44.69;101377.13;10328463;28;20047;-79
2022/03/26 08:19:29;;;;;;;31.30;20.48;;;;;;;9.42;43.06;101378.53;10327422;28;20112;-79
2022/03/26 08:24:31;;;;;;;35.30;21.42;;;;;;;9.89;41.94;101382.22;10320075;28;20125;-79
2022/03/26 08:29:33;;;;;;;33.55;20.48;;;;;;;10.21;41.07;101381.97;10322587;28;20618;-79
2022/03/26 08:34:35;;;;;;;35.75;21.35;;;;;;;10.39;40.80;101383.94;10298220;28;20393;-79
2022/03/26 08:39:36;;;;;;;39.33;22.00;;;;;;;10.46;40.19;101381.97;10324757;28;20137;-79
2022/03/26 08:44:38;;;;;;;33.13;21.55;;;;;;;10.33;40.24;101373.69;10323679;28;20046;-79
2022/03/26 08:49:44;;;;;;;35.53;21.98;;;;;;;10.72;39.78;101368.75;10329839;28;20137;-79
2022/03/26 08:54:46;;;;;;;37.30;22.15;;;;;;;11.32;39.12;101359.47;10325280;28;20090;-79
2022/03/26 08:59:48;;;;;;;36.92;21.90;;;;;;;11.66;38.09;101365.88;10329052;28;20142;-80
2022/03/26 09:04:50;;;;;;;36.45;23.25;;;;;;;11.88;37.62;101360.59;10320002;28;20590;-79
2022/03/26 09:09:52;;;;;;;35.17;23.40;;;;;;;12.32;37.31;101356.94;10329104;28;20161;-81
2022/03/26 09:14:53;;;;;;;40.78;25.20;;;;;;;12.47;36.62;101356.25;10327700;28;20144;-81
2022/03/26 09:19:55;;;;;;;39.97;23.90;;;;;;;12.72;36.31;101356.81;10326206;28;20050;-82
2022/03/26 09:24:57;;;;;;;42.05;24.15;;;;;;;13.16;36.75;101354.75;10331384;28;20113;-82
2022/03/26 09:29:59;;;;;;;41.55;23.98;;;;;;;13.46;35.49;101357.69;10331998;28;20140;-82
2022/03/26 09:35:08;;;;;;;39.03;23.92;;;;;;;13.45;35.34;101348.13;10326794;28;20664;-81
2022/03/26 09:40:12;;;;;;;42.17;25.05;;;;;;;13.42;35.33;101349.13;10326465;28;20065;-82
2022/03/26 09:45:14;;;;;;;39.75;23.98;;;;;;;13.78;35.49;101335.91;10300115;28;20132;-82
2022/03/26 09:50:17;;;;;;;38.70;23.40;;;;;;;14.06;34.95;101351.13;10331578;28;20054;-81
2022/03/26 09:55:21;;;;;;;38.50;24.50;;;;;;;14.31;34.58;101338.38;10329853;28;20097;-82
2022/03/26 10:00:24;;;;;;;43.38;24.73;;;;;;;14.45;33.86;101333.25;10326249;28;20058;-81
2022/03/26 10:05:34;;;;;;;37.88;24.52;;;;;;;14.68;32.88;101330.25;10304604;28;20137;-82
2022/03/26 10:10:44;;;;;;;39.90;23.70;;;;;;;14.77;33.46;101327.13;10287860;28;20089;-82
2022/03/26 10:16:09;;;;;;;43.38;24.70;;;;;;;14.79;32.69;101332.31;10293602;28;20168;-81
2022/03/26 10:21:17;;;;;;;38.03;23.45;;;;;;;14.76;32.94;101332.47;10285708;28;20058;-81
2022/03/26 10:26:23;;;;;;;43.92;25.35;;;;;;;15.13;33.59;101322.44;10290417;28;20468;-81
2022/03/26 10:36:54;;;;;;;37.08;23.90;;;;;;;15.50;32.80;101315.94;10291000;28;20531;-81
2022/03/26 10:41:57;;;;;;;38.60;22.75;;;;;;;15.85;32.01;101309.44;10296728;28;20595;-81
2022/03/26 10:47:02;;;;;;;37.50;22.60;;;;;;;15.80;32.62;101303.56;10291312;28;20141;-82
2022/03/26 10:52:16;;;;;;;40.63;22.30;;;;;;;15.92;31.69;101299.34;10303529;28;20101;-81
2022/03/26 10:57:21;;;;;;;34.47;22.40;;;;;;;16.05;31.98;101293.25;10291553;28;20064;-81
2022/03/26 11:02:23;;;;;;;41.25;21.35;;;;;;;16.03;32.82;101283.72;10305090;28;20144;-81
2022/03/26 11:07:26;;;;;;;33.92;20.60;;;;;;;15.74;32.57;101280.19;10330246;28;20073;-81
2022/03/26 11:12:28;;;;;;;30.67;18.20;;;;;;;15.73;32.02;101277.66;10330743;28;20132;-81
2022/03/26 11:17:39;;;;;;;34.50;18.00;;;;;;;15.64;30.53;101273.78;10330398;28;20156;-82
2022/03/26 11:22:49;;;;;;;31.83;17.05;;;;;;;15.65;31.20;101275.50;10331406;28;20046;-82
2022/03/26 11:28:28;;;;;;;28.77;18.17;;;;;;;15.72;30.98;101265.41;10335612;28;20054;-82
2022/03/26 11:33:36;;;;;;;34.80;17.27;;;;;;;15.86;31.06;101268.91;10330363;28;20196;-82
2022/03/26 11:38:38;;;;;;;32.58;18.75;;;;;;;16.08;30.82;101265.81;10331010;28;20086;-82
2022/03/26 11:43:43;;;;;;;38.28;19.88;;;;;;;16.11;30.30;101261.19;10325567;28;20085;-82
2022/03/26 11:54:08;;;;;;;34.75;18.95;;;;;;;16.33;30.25;101244.88;10331605;28;20148;-83
2022/03/26 11:59:16;;;;;;;30.23;18.85;;;;;;;16.24;29.59;101237.53;10320418;28;20100;-83
2022/03/26 12:04:21;;;;;;;33.38;18.88;;;;;;;16.46;30.85;101234.41;10330175;28;20094;-83
2022/03/26 12:09:34;;;;;;;32.60;19.60;;;;;;;16.68;29.74;101213.59;10325540;28;20431;-82
2022/03/26 12:15:05;;;;;;;35.80;19.30;;;;;;;16.74;30.62;101207.91;10333136;28;20156;-82
2022/03/26 12:20:35;;;;;;;31.85;18.58;;;;;;;16.70;29.71;101201.13;10330064;28;20488;-82
2022/03/26 12:25:51;;;;;;;29.45;15.55;;;;;;;16.97;29.32;101180.84;10335967;28;20046;-82
2022/03/26 12:30:55;;;;;;;29.17;15.73;;;;;;;16.83;28.93;101175.63;10335466;28;20579;-82
2022/03/26 12:35:57;;;;;;;30.60;15.27;;;;;;;16.86;28.06;101175.41;10340654;28;20053;-83
2022/03/26 12:41:02;;;;;;;27.25;15.02;;;;;;;16.92;27.73;101167.06;10340689;28;20054;-82
2022/03/26 12:46:09;;;;;;;28.73;14.88;;;;;;;17.07;28.10;101171.34;10335686;28;20486;-83
2022/03/26 12:51:11;;;;;;;27.67;14.10;;;;;;;17.33;28.10;101149.31;10336827;28;20142;-83
2022/03/26 12:56:14;;;;;;;31.63;15.60;;;;;;;17.40;27.55;101155.03;10336650;28;20086;-82
2022/03/26 13:01:15;;;;;;;22.98;12.55;;;;;;;17.42;27.31;101151.34;10338138;28;20180;-83
2022/03/26 13:06:20;;;;;;;27.52;12.20;;;;;;;17.56;26.02;101145.94;10327869;28;20057;-82
2022/03/26 13:11:24;;;;;;;27.60;13.13;;;;;;;17.67;26.45;101143.38;10338056;28;20172;-82
2022/03/26 13:16:34;;;;;;;22.55;12.30;;;;;;;17.55;25.66;101141.56;10336181;28;20050;-82
2022/03/26 13:21:38;;;;;;;23.50;10.48;;;;;;;17.79;26.16;101123.16;10335583;28;20061;-82
2022/03/26 13:26:58;;;;;;;16.52;9.13;;;;;;;17.76;24.62;101126.00;10335622;28;20054;-82
2022/03/26 13:32:02;;;;;;;20.73;10.10;;;;;;;17.65;25.21;101123.25;10326990;28;20053;-82
2022/03/26 13:37:22;;;;;;;24.13;11.07;;;;;;;17.65;26.27;101118.81;10332315;28;20059;-82
2022/03/26 13:42:25;;;;;;;23.85;11.18;;;;;;;17.87;26.62;101114.66;10330259;28;20475;-82
2022/03/26 13:47:34;;;;;;;22.83;10.55;;;;;;;18.04;25.47;101120.44;10332052;28;20058;-81
2022/03/26 13:52:41;;;;;;;21.15;11.05;;;;;;;18.19;25.05;101102.59;10324041;28;20046;-82
2022/03/26 13:57:48;;;;;;;19.92;10.18;;;;;;;17.99;24.71;101104.03;10330237;28;20077;-81
2022/03/26 14:02:52;;;;;;;25.05;10.60;;;;;;;17.92;24.75;101099.28;10328784;28;20137;-83
2022/03/26 14:08:11;;;;;;;22.33;10.57;;;;;;;18.02;25.05;101084.44;10329940;28;20085;-83
2022/03/26 14:13:16;;;;;;;19.27;10.00;;;;;;;17.98;25.52;101088.25;10330672;28;20043;-82
2022/03/26 14:18:24;;;;;;;19.65;10.82;;;;;;;17.96;24.73;101079.56;10332108;28;20788;-83
2022/03/26 14:23:26;;;;;;;27.27;11.77;;;;;;;18.03;24.71;101081.69;10329601;28;20508;-82
2022/03/26 14:28:30;;;;;;;22.58;11.18;;;;;;;18.17;25.36;101078.88;10328575;28;20058;-82
2022/03/26 14:33:32;;;;;;;22.25;10.27;;;;;;;18.22;24.66;101066.16;10311513;28;20492;-83
2022/03/26 14:38:35;;;;;;;18.77;9.27;;;;;;;18.21;25.51;101069.78;10330733;28;20054;-83
2022/03/26 14:43:38;;;;;;;20.45;10.45;;;;;;;18.20;24.88;101056.66;10331312;28;20060;-83
2022/03/26 14:48:42;;;;;;;20.20;9.93;;;;;;;18.36;25.34;101058.03;10332128;28;20050;-83
2022/03/26 14:53:44;;;;;;;18.17;9.10;;;;;;;18.35;25.30;101050.22;10327483;28;20069;-83
2022/03/26 14:58:48;;;;;;;21.77;10.07;;;;;;;18.12;24.95;101053.69;10313433;28;20046;-84
2022/03/26 15:03:52;;;;;;;19.33;9.25;;;;;;;18.15;25.72;101045.53;10283353;28;20118;-82
2022/03/26 15:08:53;;;;;;;20.67;10.15;;;;;;;18.20;25.18;101040.78;10305572;28;20102;-82
2022/03/26 15:13:55;;;;;;;23.75;9.65;;;;;;;18.27;26.51;101039.34;10281650;28;20054;-81
2022/03/26 15:18:58;;;;;;;16.60;9.10;;;;;;;18.25;27.38;101034.19;10286129;28;20145;-81
2022/03/26 15:24:00;;;;;;;23.20;9.52;;;;;;;18.07;27.20;101034.66;10303148;28;20425;-81
2022/03/26 15:29:02;;;;;;;19.10;9.90;;;;;;;18.18;26.76;101032.06;10288646;28;20145;-81
2022/03/26 15:34:07;;;;;;;17.40;9.00;;;;;;;18.42;26.50;101032.94;10287333;28;20050;-81
2022/03/26 15:39:09;;;;;;;17.00;9.48;;;;;;;18.34;27.14;101038.78;10288619;28;20169;-82
2022/03/26 15:44:11;;;;;;;20.80;10.07;;;;;;;18.30;27.17;101026.72;10284886;28;21011;-82
2022/03/26 15:49:13;;;;;;;26.40;11.07;;;;;;;18.09;27.77;101027.44;10298642;28;20057;-82
2022/03/26 15:54:15;;;;;;;19.55;10.27;;;;;;;18.07;27.83;101024.06;10298215;28;20145;-82
2022/03/26 15:59:17;;;;;;;18.75;10.75;;;;;;;18.12;27.39;101029.84;10297659;28;20151;-83
2022/03/26 16:04:21;;;;;;;22.92;11.88;;;;;;;18.04;28.19;101029.56;10295396;28;20129;-82
2022/03/26 16:09:23;;;;;;;24.95;12.07;;;;;;;17.92;29.32;101027.81;10287455;28;20141;-82
2022/03/26 16:14:25;;;;;;;27.58;12.40;;;;;;;17.75;29.02;101029.06;10305739;28;20133;-82
2022/03/26 16:19:28;;;;;;;23.20;11.63;;;;;;;17.55;29.11;101030.47;10287934;28;20104;-83
2022/03/26 16:24:29;;;;;;;21.48;12.88;;;;;;;17.40;30.18;101033.38;10289178;28;20050;-82
2022/03/26 16:29:32;;;;;;;23.95;12.63;;;;;;;17.25;31.31;101035.25;10294274;28;20062;-82
2022/03/26 16:34:34;;;;;;;19.30;11.98;;;;;;;17.18;31.29;101041.91;10309679;28;20157;-82
2022/03/26 16:39:36;;;;;;;21.60;12.05;;;;;;;17.18;30.75;101039.28;10287914;28;20098;-81
2022/03/26 16:44:38;;;;;;;22.05;12.40;;;;;;;16.96;31.54;101036.41;10288386;28;20054;-82
2022/03/26 16:49:40;;;;;;;24.45;12.27;;;;;;;16.72;31.78;101032.81;10293885;28;20140;-82
2022/03/26 16:54:42;;;;;;;19.80;11.07;;;;;;;16.53;32.22;101030.56;10295110;28;20153;-81
2022/03/26 16:59:44;;;;;;;24.45;10.82;;;;;;;16.43;32.59;101036.53;10292432;28;20088;-81
2022/03/26 17:04:46;;;;;;;17.23;10.73;;;;;;;16.28;32.51;101040.19;10292178;28;20562;-82
2022/03/26 17:09:50;;;;;;;22.00;10.38;;;;;;;16.09;32.94;101035.28;10292829;28;20054;-82
2022/03/26 17:14:52;;;;;;;17.88;10.70;;;;;;;15.96;33.25;101045.78;10291793;28;20140;-82
2022/03/26 17:19:53;;;;;;;21.33;10.20;;;;;;;15.76;33.48;101042.69;10290234;28;20050;-81
2022/03/26 17:24:55;;;;;;;24.38;10.48;;;;;;;15.58;34.09;101044.72;10284305;28;20956;-81
2022/03/26 17:29:57;;;;;;;18.70;10.48;;;;;;;15.34;34.58;101048.84;10288223;28;20059;-82
2022/03/26 17:35:00;;;;;;;22.23;9.93;;;;;;;15.15;34.54;101045.66;10286839;28;20128;-82
2022/03/26 17:40:03;;;;;;;16.25;10.20;;;;;;;14.99;34.71;101048.38;10284645;28;20536;-82
2022/03/26 17:45:06;;;;;;;18.38;9.98;;;;;;;14.89;35.06;101047.22;10284472;28;20141;-82
2022/03/26 17:50:09;;;;;;;16.23;9.52;;;;;;;14.79;35.18;101058.41;10291891;28;20667;-82
2022/03/26 17:55:11;;;;;;;14.95;8.43;;;;;;;14.63;35.34;101061.09;10288262;28;20057;-82
2022/03/26 18:00:14;;;;;;;13.57;8.02;;;;;;;14.48;35.45;101064.59;10305531;28;20086;-82
2022/03/26 18:05:17;;;;;;;16.75;7.85;;;;;;;14.30;35.38;101066.50;10326162;28;20084;-82
2022/03/26 18:10:20;;;;;;;21.30;8.27;;;;;;;14.01;36.30;101074.31;10330392;28;20086;-82
2022/03/26 18:15:22;;;;;;;21.60;10.43;;;;;;;13.87;36.64;101080.34;10327147;28;20054;-82
2022/03/26 18:20:24;;;;;;;16.17;9.57;;;;;;;13.71;37.03;101084.75;10323670;28;20706;-82
2022/03/26 18:25:27;;;;;;;22.27;9.20;;;;;;;13.61;36.96;101081.78;10323410;28;20431;-82
2022/03/26 18:30:29;;;;;;;18.23;8.90;;;;;;;13.47;37.18;101089.56;10331201;28;20055;-82
2022/03/26 18:35:32;;;;;;;16.88;8.70;;;;;;;13.30;37.39;101109.72;10326107;28;20050;-81
2022/03/26 18:40:35;;;;;;;16.25;8.55;;;;;;;13.00;38.20;101104.31;10325283;28;20129;-82
2022/03/26 18:45:43;;;;;;;17.95;10.48;;;;;;;12.83;38.76;101120.03;10317976;28;20042;-82
2022/03/26 18:50:46;;;;;;;19.05;10.23;;;;;;;12.76;38.72;101118.66;10315727;28;20054;-82
2022/03/26 18:55:49;;;;;;;20.02;9.57;;;;;;;12.63;39.41;101125.44;10305402;28;20133;-81
2022/03/26 19:00:51;;;;;;;19.15;10.68;;;;;;;12.45;39.82;101129.81;10306695;28;20142;-82
2022/03/26 19:05:53;;;;;;;17.95;10.50;;;;;;;12.30;40.12;101141.03;10304612;28;20081;-81
2022/03/26 19:10:56;;;;;;;16.35;10.77;;;;;;;12.18;40.20;101138.97;10287896;28;20054;-81
2022/03/26 19:15:58;;;;;;;18.45;10.10;;;;;;;12.00;40.78;101153.81;10303694;28;20056;-81
2022/03/26 19:21:31;;;;;;;21.10;12.98;;;;;;;11.89;41.21;101163.06;10308135;28;20061;-81
2022/03/26 19:26:33;;;;;;;24.30;11.55;;;;;;;11.79;41.11;101165.25;10309055;28;20111;-81
2022/03/26 19:31:35;;;;;;;23.88;13.10;;;;;;;11.67;41.68;101172.81;10305962;28;20227;-80
2022/03/26 19:36:37;;;;;;;25.42;14.95;;;;;;;11.40;42.07;101181.91;10305311;28;20058;-80
2022/03/26 19:41:39;;;;;;;17.20;9.90;;;;;;;11.26;42.54;101183.34;10306814;28;20499;-80
2022/03/26 19:46:41;;;;;;;15.50;9.23;;;;;;;11.08;42.83;101184.13;10307665;28;20176;-80
2022/03/26 19:51:43;;;;;;;15.45;9.38;;;;;;;10.94;43.18;101190.81;10307222;28;20154;-80
2022/03/26 19:56:44;;;;;;;16.48;9.25;;;;;;;10.86;43.46;101183.28;10305831;28;20161;-80
2022/03/26 20:01:47;;;;;;;18.63;9.02;;;;;;;10.83;43.64;101204.31;10303891;28;20145;-80
2022/03/26 20:06:50;;;;;;;16.23;8.77;;;;;;;10.69;43.81;101200.56;10304619;28;20057;-80
2022/03/26 20:11:52;;;;;;;16.45;8.85;;;;;;;10.47;44.27;101205.78;10307423;28;20146;-81
2022/03/26 20:22:14;;;;;;;14.40;7.77;;;;;;;10.14;45.00;101212.31;10308060;28;20054;-81
2022/03/26 20:27:16;;;;;;;14.15;7.88;;;;;;;10.14;45.08;101214.91;10307815;28;20065;-81
2022/03/26 20:32:18;;;;;;;12.90;8.30;;;;;;;10.10;45.19;101222.03;10311437;28;20144;-81
2022/03/26 20:37:20;;;;;;;15.75;8.70;;;;;;;9.99;45.62;101225.97;10316483;28;20145;-81
2022/03/26 20:42:22;;;;;;;14.38;8.85;;;;;;;9.85;45.91;101229.06;10318530;28;20153;-81
2022/03/26 20:47:25;;;;;;;16.15;8.98;;;;;;;9.73;46.03;101226.88;10297171;28;20443;-81
2022/03/26 20:52:27;;;;;;;13.50;8.23;;;;;;;9.63;46.15;101236.78;10314144;28;20137;-81
2022/03/26 20:57:29;;;;;;;15.15;8.25;;;;;;;9.59;46.41;101242.16;10297855;28;20145;-81
2022/03/26 21:02:30;;;;;;;14.30;7.75;;;;;;;9.46;46.35;101248.75;10315630;28;20168;-81
2022/03/26 21:07:33;;;;;;;13.80;7.43;;;;;;;9.40;46.65;101248.94;10314405;28;20097;-81
2022/03/26 21:12:38;;;;;;;11.48;7.22;;;;;;;9.23;46.75;101254.72;10296780;28;20148;-81
2022/03/26 21:17:40;;;;;;;14.57;7.57;;;;;;;9.18;47.06;101248.78;10314466;28;20050;-81
2022/03/26 21:22:44;;;;;;;13.48;7.82;;;;;;;9.02;47.44;101252.81;10293750;28;20075;-81
2022/03/26 21:27:46;;;;;;;13.93;7.97;;;;;;;8.93;47.61;101263.56;10313706;28;20062;-81
2022/03/26 21:32:47;;;;;;;10.85;7.13;;;;;;;8.78;47.87;101264.91;10313537;28;20085;-81
2022/03/26 21:37:57;;;;;;;16.30;7.88;;;;;;;8.63;48.27;101269.72;10313321;28;20153;-81
2022/03/26 21:43:00;;;;;;;10.43;7.63;;;;;;;8.43;48.65;101270.31;10312761;28;20132;-81
2022/03/26 21:48:03;;;;;;;12.98;8.23;;;;;;;8.31;49.00;101262.88;10312497;28;20217;-81
2022/03/26 21:53:05;;;;;;;12.65;7.78;;;;;;;8.25;49.20;101263.03;10313164;28;20078;-81
2022/03/26 21:58:09;;;;;;;14.05;8.60;;;;;;;8.17;49.31;101259.81;10313537;28;20061;-81
2022/03/26 22:03:11;;;;;;;18.38;9.23;;;;;;;8.11;49.51;101265.19;10312100;28;20069;-81
2022/03/26 22:08:13;;;;;;;16.25;8.70;;;;;;;8.02;49.62;101273.22;10310972;28;20575;-81
2022/03/26 22:13:15;;;;;;;16.30;8.48;;;;;;;8.06;50.02;101276.63;10311997;28;20089;-81
2022/03/26 22:18:16;;;;;;;19.67;9.18;;;;;;;7.97;50.04;101270.78;10312046;28;20117;-81
2022/03/26 22:23:18;;;;;;;15.73;9.68;;;;;;;7.83;50.27;101277.25;10311253;28;20058;-81
2022/03/26 22:28:20;;;;;;;14.00;9.50;;;;;;;7.65;50.68;101277.75;10310815;28;20508;-81
2022/03/26 22:33:22;;;;;;;15.32;9.00;;;;;;;7.48;51.18;101269.50;10311842;28;20093;-81
2022/03/26 22:38:24;;;;;;;15.10;10.00;;;;;;;7.34;51.45;101267.28;10310915;28;20137;-81
2022/03/26 22:43:26;;;;;;;16.85;9.63;;;;;;;7.29;51.61;101273.47;10312121;28;20292;-80
2022/03/26 22:48:28;;;;;;;18.50;10.38;;;;;;;7.20;51.93;101278.00;10313183;28;20078;-81
2022/03/26 22:53:31;;;;;;;17.23;9.73;;;;;;;7.09;52.12;101272.22;10310336;28;20133;-81
2022/03/26 22:58:33;;;;;;;14.73;9.18;;;;;;;7.04;52.35;101273.25;10310931;28;20121;-81
2022/03/26 23:03:35;;;;;;;17.23;9.70;;;;;;;7.05;52.39;101273.19;10310097;28;20468;-81
2022/03/26 23:08:37;;;;;;;17.00;9.95;;;;;;;6.92;52.73;101276.09;10309893;28;20077;-81